Time;durP1;ratioP1;P1;durP2;ratioP2;P2;SDS_P1;SDS_P2;PMS_P1;PMS_P2;Temp;Humidity;BMP_temperature;BMP_pressure;BME280_temperature;BME280_humidity;BME280_pressure;Samples;Min_cycle;Max_cycle;Signal;HPM_P1;HPM_P2
2022/07/06 00:01:46;;;;;;;7.25;3.05;;;;;;;;;;5022031;28;20084;-78
2022/07/06 00:04:12;;;;;;;6.15;3.50;;;;;;;13.15;84.92;68234.06;5013049;28;20609;-78
2022/07/06 00:06:37;;;;;;;4.82;3.45;;;;;;;13.12;84.82;68236.56;5020749;28;20854;-78
2022/07/06 00:09:04;;;;;;;5.75;3.28;;;;;;;13.17;84.65;68236.34;5027171;28;20037;-79
2022/07/06 00:11:29;;;;;;;7.20;3.95;;;;;;;;;;5028639;28;20597;-79
2022/07/06 00:13:56;;;;;;;6.25;4.15;;;;;;;13.27;84.03;68248.31;5029508;28;20045;-80
2022/07/06 00:16:22;;;;;;;6.53;3.63;;;;;;;;;;5022874;28;20049;-80
2022/07/06 00:18:47;;;;;;;5.18;3.22;;;;;;;13.32;83.76;68248.66;5033134;28;20092;-80
2022/07/06 00:21:12;;;;;;;6.32;3.72;;;;;;;13.34;83.83;68255.13;5021120;28;20038;-80
2022/07/06 00:23:38;;;;;;;5.57;4.10;;;;;;;13.38;83.41;68265.59;5031698;28;20049;-80
2022/07/06 00:26:03;;;;;;;5.55;3.53;;;;;;;;;;5031996;28;20037;-80
2022/07/06 00:28:29;;;;;;;6.07;3.42;;;;;;;13.22;84.18;68242.03;5019505;28;20060;-81
2022/07/06 00:30:54;;;;;;;5.05;3.38;;;;;;;13.26;84.18;68246.59;5033705;28;20045;-80
2022/07/06 00:33:19;;;;;;;5.85;3.58;;;;;;;;;;5017619;28;20041;-80
2022/07/06 00:35:45;;;;;;;6.85;3.90;;;;;;;13.22;84.06;68242.03;5015660;28;20058;-80
2022/07/06 00:38:10;;;;;;;5.80;4.45;;;;;;;13.21;84.45;68240.91;5018389;28;20053;-80
2022/07/06 00:40:36;;;;;;;6.05;3.53;;;;;;;13.06;84.98;68227.06;5017066;28;20052;-80
2022/07/06 00:43:01;;;;;;;6.38;3.80;;;;;;;;;;5023578;28;20153;-79
2022/07/06 00:45:26;;;;;;;5.88;3.95;;;;;;;12.97;85.70;68214.72;5020053;28;20045;-79
2022/07/06 00:47:52;;;;;;;6.45;4.05;;;;;;;13.05;85.52;68225.94;5033807;28;20589;-80
2022/07/06 00:50:20;;;;;;;5.40;3.70;;;;;;;12.98;86.00;68215.31;5013052;28;20042;-80
2022/07/06 00:52:47;;;;;;;5.80;3.42;;;;;;;13.02;85.92;68219.84;5012522;28;20068;-80
2022/07/06 00:55:13;;;;;;;5.43;3.97;;;;;;;;;;5025235;28;20029;-80
2022/07/06 00:57:40;;;;;;;6.13;4.00;;;;;;;12.93;86.43;68210.19;5031126;28;20136;-81
2022/07/06 01:00:08;;;;;;;6.53;4.00;;;;;;;12.92;86.46;68208.47;5028383;28;20037;-80
2022/07/06 01:02:35;;;;;;;6.75;4.28;;;;;;;12.83;87.08;68199.38;5030376;28;20034;-80
2022/07/06 01:05:03;;;;;;;8.55;3.83;;;;;;;12.82;87.21;68197.69;5029484;28;20387;-80
2022/07/06 01:07:29;;;;;;;7.38;3.55;;;;;;;12.81;87.48;68199.22;5016331;28;20057;-80
2022/07/06 01:09:55;;;;;;;6.63;3.95;;;;;;;12.89;87.21;68205.66;5022988;28;20030;-79
2022/07/06 01:12:20;;;;;;;5.07;3.65;;;;;;;;;;5031123;28;20321;-79
2022/07/06 01:14:47;;;;;;;5.55;3.85;;;;;;;12.94;87.33;68210.75;5037229;28;20112;-79
2022/07/06 01:17:14;;;;;;;6.47;3.60;;;;;;;12.93;87.27;68212.28;5036243;28;20053;-79
2022/07/06 01:19:39;;;;;;;6.38;3.35;;;;;;;12.75;87.96;68190.28;5032374;28;20292;-79
2022/07/06 01:22:04;;;;;;;6.95;3.70;;;;;;;;;;5030317;28;20911;-79
2022/07/06 01:24:30;;;;;;;4.95;3.60;;;;;;;12.88;87.72;68205.06;5024648;28;20114;-79
2022/07/06 01:26:55;;;;;;;5.18;3.25;;;;;;;12.93;87.29;68209.63;5023481;28;20042;-78
2022/07/06 01:29:20;;;;;;;7.43;3.53;;;;;;;13.01;87.08;68219.28;5029819;28;20599;-79
2022/07/06 01:31:50;;;;;;;4.57;3.08;;;;;;;12.95;87.25;68215.13;5021434;28;20033;-79
2022/07/06 01:34:26;;;;;;;6.60;3.45;;;;;;;12.93;87.33;68209.63;5030769;28;20025;-82
2022/07/06 01:36:51;;;;;;;4.80;3.08;;;;;;;;;;5022307;28;20049;-78
2022/07/06 01:39:16;;;;;;;5.90;2.92;;;;;;;12.88;87.87;68204.50;5021462;28;20473;-78
2022/07/06 01:41:42;;;;;;;4.45;2.83;;;;;;;;;;5026219;28;20052;-79
2022/07/06 01:44:07;;;;;;;5.37;2.90;;;;;;;12.89;87.87;68205.66;5023727;28;20893;-79
2022/07/06 01:46:33;;;;;;;5.88;3.13;;;;;;;13.00;87.49;68212.22;5040610;28;20722;-79
2022/07/06 01:48:59;;;;;;;6.82;2.75;;;;;;;13.06;87.75;68224.38;5026542;28;20546;-78
2022/07/06 02:27:45;;;;;;;7.13;2.90;;;;;;;;;;5076306;22;20130;-78
2022/07/06 02:30:11;;;;;;;5.15;3.45;;;;;;;12.48;91.15;68160.16;5038273;28;20429;-77
2022/07/06 02:32:36;;;;;;;7.05;3.20;;;;;;;12.52;91.04;68164.16;5018816;28;20038;-78
2022/07/06 02:35:01;;;;;;;4.75;3.10;;;;;;;12.44;91.72;68155.06;5042488;28;20095;-79
2022/07/06 02:37:27;;;;;;;4.45;3.08;;;;;;;12.37;92.24;68147.66;5029269;28;20040;-78
2022/07/06 02:39:52;;;;;;;6.03;3.17;;;;;;;12.46;91.76;68157.31;5024674;28;20037;-79
2022/07/06 02:42:17;;;;;;;4.55;3.25;;;;;;;12.41;92.19;68154.88;5017713;28;20547;-78
2022/07/06 02:44:43;;;;;;;6.53;3.58;;;;;;;12.42;92.11;68153.91;5003711;28;20084;-79
2022/07/06 02:47:08;;;;;;;5.38;3.13;;;;;;;12.40;92.23;68151.09;5005280;28;20069;-79
2022/07/06 02:49:33;;;;;;;6.30;3.20;;;;;;;12.41;92.63;68154.88;5003750;28;20065;-79
2022/07/06 02:51:59;;;;;;;5.10;3.20;;;;;;;12.45;92.13;68156.19;5004975;28;20077;-78
2022/07/06 02:54:24;;;;;;;6.70;3.28;;;;;;;12.36;92.96;68146.53;5004442;28;20057;-78
2022/07/06 02:56:52;;;;;;;7.25;4.13;;;;;;;12.44;92.66;68155.06;5003266;28;20034;-78
2022/07/06 02:59:19;;;;;;;5.63;3.63;;;;;;;12.33;92.86;68146.34;5004000;28;20057;-80
2022/07/06 03:01:44;;;;;;;7.70;3.38;;;;;;;;;;5002951;28;20046;-80
2022/07/06 03:04:10;;;;;;;6.63;2.95;;;;;;;;;;5009231;28;20045;-79
2022/07/06 03:06:35;;;;;;;7.57;4.25;;;;;;;;;;5007471;28;20044;-80
2022/07/06 03:09:01;;;;;;;7.05;3.83;;;;;;;12.44;92.60;68155.63;5008776;28;20041;-79
2022/07/06 03:11:27;;;;;;;8.75;4.40;;;;;;;12.37;92.77;68142.91;5007051;28;20558;-80
2022/07/06 03:13:52;;;;;;;7.28;3.28;;;;;;;12.39;92.81;68158.50;5007102;28;20038;-80
2022/07/06 03:16:17;;;;;;;8.40;3.58;;;;;;;12.29;93.62;68138.56;5007047;28;20088;-82
2022/07/06 03:18:43;;;;;;;8.45;3.70;;;;;;;12.30;93.52;68140.28;5004428;28;20053;-80
2022/07/06 03:21:08;;;;;;;5.03;3.50;;;;;;;12.37;93.31;68148.25;5004668;28;20126;-80
2022/07/06 03:23:34;;;;;;;6.55;3.65;;;;;;;;;;5006694;28;20465;-79
2022/07/06 03:26:00;;;;;;;5.47;3.38;;;;;;;12.40;93.01;68156.41;5018733;28;20056;-79
2022/07/06 03:28:25;;;;;;;7.70;3.30;;;;;;;12.42;93.20;68156.56;5008732;28;20693;-79
2022/07/06 03:30:51;;;;;;;4.45;2.97;;;;;;;12.40;93.18;68154.31;5010118;28;20053;-78
2022/07/06 03:33:16;;;;;;;6.40;3.38;;;;;;;12.42;93.12;68153.91;5013061;28;20485;-79
2022/07/06 03:35:41;;;;;;;5.25;3.05;;;;;;;12.47;93.09;68158.47;5008317;28;20189;-78
2022/07/06 03:38:07;;;;;;;10.27;3.10;;;;;;;12.42;93.08;68156.56;5009649;28;20103;-81
2022/07/06 03:40:33;;;;;;;10.18;3.30;;;;;;;12.53;92.60;68165.28;5007958;28;20652;-80
2022/07/06 03:42:58;;;;;;;6.30;3.13;;;;;;;12.58;92.18;68171.53;5010128;28;20072;-80
2022/07/06 03:45:24;;;;;;;9.65;3.40;;;;;;;12.56;92.22;68174.03;5008452;28;20073;-80
2022/07/06 03:47:49;;;;;;;8.25;3.30;;;;;;;12.58;92.44;68170.97;5010600;28;20046;-80
2022/07/06 03:50:15;;;;;;;7.32;3.20;;;;;;;12.51;92.79;68163.56;5010674;28;20048;-80
2022/07/06 03:52:40;;;;;;;4.10;2.50;;;;;;;12.52;92.86;68164.16;5007840;28;20053;-79
2022/07/06 03:55:10;;;;;;;6.40;2.78;;;;;;;;;;4998343;28;20052;-79
2022/07/06 03:57:35;;;;;;;5.93;2.95;;;;;;;;;;5005621;28;20042;-80
2022/07/06 04:00:01;;;;;;;4.30;2.50;;;;;;;12.56;92.80;68169.25;5004930;28;20118;-78
2022/07/06 04:02:26;;;;;;;4.35;2.80;;;;;;;12.57;93.07;68170.41;5026537;28;20033;-79
2022/07/06 04:04:51;;;;;;;5.63;3.25;;;;;;;12.57;93.13;68169.81;5029552;28;20084;-80
2022/07/06 04:07:17;;;;;;;5.88;3.10;;;;;;;12.54;93.70;68169.63;5028716;28;20033;-79
2022/07/06 04:09:42;;;;;;;5.45;3.03;;;;;;;;;;5030110;28;20045;-78
2022/07/06 04:12:07;;;;;;;5.45;3.03;;;;;;;;;;5027924;28;20046;-79
2022/07/06 04:14:34;;;;;;;7.15;3.10;;;;;;;;;;5031898;28;20105;-79
2022/07/06 04:17:51;;;;;;;6.78;3.03;;;;;;;12.72;92.48;68186.31;5032278;28;20036;-80
2022/07/06 04:19:45;;;;;;;5.75;3.10;;;;;;;12.78;92.61;68193.13;5032067;28;20056;-80
2022/07/06 04:22:10;;;;;;;5.30;2.88;;;;;;;12.76;92.79;68185.50;5031502;28;20053;-81
2022/07/06 04:24:36;;;;;;;4.80;2.70;;;;;;;12.85;92.48;68204.31;5030037;28;20032;-80
2022/07/06 04:27:01;;;;;;;5.25;2.88;;;;;;;12.79;93.24;68194.25;5031401;28;20051;-78
2022/07/06 04:29:26;;;;;;;4.10;2.53;;;;;;;;;;5026454;28;20568;-82
2022/07/06 04:31:52;;;;;;;5.72;3.10;;;;;;;;;;5016957;28;20109;-80
2022/07/06 04:34:17;;;;;;;10.10;2.65;;;;;;;;;;5022517;28;20042;-80
2022/07/06 04:36:42;;;;;;;8.60;3.05;;;;;;;12.88;92.42;68199.72;5015414;28;20064;-80
2022/07/06 04:39:08;;;;;;;8.43;2.92;;;;;;;12.83;93.01;68191.38;5014113;28;20049;-80
2022/07/06 04:41:33;;;;;;;7.25;2.90;;;;;;;12.87;93.11;68203.94;5013386;28;20042;-81
2022/07/06 04:43:58;;;;;;;6.25;2.75;;;;;;;;;;5011064;28;20117;-79
2022/07/06 04:46:24;;;;;;;7.53;2.63;;;;;;;;;;5011278;28;20181;-79
2022/07/06 04:48:50;;;;;;;5.30;2.20;;;;;;;13.05;92.27;68223.81;5011855;28;20295;-79
2022/07/06 04:51:16;;;;;;;5.22;2.63;;;;;;;13.07;92.20;68220.19;5017003;28;20208;-79
2022/07/06 04:53:41;;;;;;;7.75;2.70;;;;;;;;;;5037340;28;20044;-81
2022/07/06 04:56:07;;;;;;;6.80;2.83;;;;;;;13.15;92.04;68234.63;5031409;28;20046;-81
2022/07/06 04:58:32;;;;;;;5.07;2.88;;;;;;;13.15;92.04;68236.72;5011463;28;20033;-79
2022/07/06 05:00:57;;;;;;;5.03;2.60;;;;;;;13.17;91.84;68236.34;5013619;28;20156;-78
2022/07/06 05:03:23;;;;;;;8.63;3.03;;;;;;;13.23;91.60;68243.72;5028006;28;20037;-80
2022/07/06 05:05:48;;;;;;;4.88;3.20;;;;;;;13.26;91.63;68247.16;5027492;28;20051;-79
2022/07/06 05:08:14;;;;;;;5.97;2.80;;;;;;;13.31;91.55;68252.84;5011835;28;20120;-81
2022/07/06 05:10:39;;;;;;;7.47;3.30;;;;;;;;;;5012678;28;20060;-79
2022/07/06 05:13:04;;;;;;;6.68;2.58;;;;;;;13.30;91.45;68254.38;5014920;28;20388;-83
2022/07/06 05:15:30;;;;;;;6.00;3.17;;;;;;;13.34;91.91;68255.13;5027692;28;20089;-80
2022/07/06 05:17:55;;;;;;;6.38;3.10;;;;;;;13.46;91.38;68271.44;5033824;28;20044;-81
2022/07/06 05:20:21;;;;;;;5.45;2.72;;;;;;;;;;5042055;28;20052;-80
2022/07/06 05:22:46;;;;;;;6.78;3.03;;;;;;;;;;5029378;28;20042;-79
2022/07/06 05:25:11;;;;;;;5.43;2.85;;;;;;;13.41;90.94;68263.66;5019114;28;20110;-80
2022/07/06 05:27:37;;;;;;;6.22;2.35;;;;;;;13.54;90.61;68278.44;5007053;28;20433;-80
2022/07/06 05:30:02;;;;;;;6.97;2.53;;;;;;;;;;5008800;28;20088;-79
2022/07/06 05:32:28;;;;;;;6.55;2.60;;;;;;;13.56;90.03;68280.16;5003965;28;20049;-79
2022/07/06 05:34:53;;;;;;;10.25;3.47;;;;;;;13.66;89.82;68291.50;5011582;28;20111;-81
2022/07/06 05:37:18;;;;;;;5.13;2.88;;;;;;;13.73;89.60;68302.16;5018941;28;20049;-81
2022/07/06 05:39:45;;;;;;;6.22;2.53;;;;;;;13.75;88.87;68301.78;5024774;28;20057;-82
2022/07/06 05:42:10;;;;;;;4.57;2.22;;;;;;;13.80;89.04;68298.28;5009916;28;20080;-79
2022/07/06 05:44:36;;;;;;;5.07;2.28;;;;;;;13.74;89.49;68300.63;5003487;28;20411;-81
2022/07/06 05:52:29;;;;;;;6.07;2.67;;;;;;;13.80;88.68;68306.88;5020229;28;20663;-82
2022/07/06 05:54:54;;;;;;;5.13;2.22;;;;;;;;;;5006877;28;20045;-81
2022/07/06 05:57:20;;;;;;;4.60;2.03;;;;;;;13.87;88.17;68314.28;5014617;28;20049;-80
2022/07/06 05:59:45;;;;;;;5.85;2.10;;;;;;;13.92;87.37;68314.59;5010776;28;21023;-81
2022/07/06 06:02:10;;;;;;;6.20;2.10;;;;;;;13.91;87.37;68318.84;5015279;28;20037;-80
2022/07/06 06:04:36;;;;;;;3.47;1.90;;;;;;;13.93;87.18;68321.69;5048968;28;20482;-82
2022/07/06 06:07:01;;;;;;;4.78;1.95;;;;;;;13.94;87.41;68324.91;5011007;28;20059;-80
2022/07/06 06:09:26;;;;;;;5.30;2.28;;;;;;;;;;5023996;28;20041;-82
2022/07/06 06:11:52;;;;;;;5.45;2.20;;;;;;;13.90;87.72;68317.69;5011390;28;20048;-82
2022/07/06 06:14:17;;;;;;;5.00;2.33;;;;;;;13.91;87.93;68319.41;4993537;28;20057;-80
2022/07/06 06:16:42;;;;;;;4.65;2.55;;;;;;;13.75;89.87;68301.78;4991422;28;20069;-80
2022/07/06 06:19:08;;;;;;;6.82;2.83;;;;;;;;;;5043397;28;20092;-80
2022/07/06 06:21:33;;;;;;;6.68;2.30;;;;;;;13.74;90.94;68295.28;5009461;28;20033;-80
2022/07/06 06:23:58;;;;;;;6.60;2.60;;;;;;;13.65;91.88;68290.38;5011914;28;20046;-81
2022/07/06 06:26:24;;;;;;;4.20;1.98;;;;;;;;;;5011911;28;20033;-82
2022/07/06 06:28:49;;;;;;;5.18;2.15;;;;;;;;;;5009688;28;20053;-80
2022/07/06 06:31:17;;;;;;;4.35;2.10;;;;;;;;;;5006111;28;20046;-81
2022/07/06 06:33:42;;;;;;;3.95;1.90;;;;;;;13.84;90.96;68311.44;5018820;28;20030;-80
2022/07/06 06:36:07;;;;;;;4.68;1.90;;;;;;;;;;4998003;28;20084;-82
2022/07/06 06:38:33;;;;;;;6.60;2.28;;;;;;;;;;5013714;28;20503;-79
2022/07/06 06:41:01;;;;;;;3.83;2.00;;;;;;;13.77;90.78;68306.72;5014771;28;20257;-80
2022/07/06 06:43:27;;;;;;;5.18;2.35;;;;;;;13.83;89.92;68310.28;5021223;28;20402;-81
2022/07/06 06:45:52;;;;;;;7.50;2.50;;;;;;;;;;5011688;28;20041;-80
2022/07/06 06:48:18;;;;;;;11.68;3.08;;;;;;;13.95;89.23;68326.06;5011913;28;20458;-79
2022/07/06 06:50:47;;;;;;;6.18;2.28;;;;;;;14.07;88.42;68337.03;5011181;28;21101;-81
2022/07/06 06:53:12;;;;;;;4.78;2.00;;;;;;;;;;5009909;28;20117;-80
2022/07/06 06:55:38;;;;;;;5.05;1.88;;;;;;;14.34;87.42;68361.28;5033499;28;20092;-79
2022/07/06 06:58:03;;;;;;;3.67;1.90;;;;;;;14.41;86.35;68369.22;5012391;28;20116;-79
2022/07/06 07:00:29;;;;;;;5.00;1.85;;;;;;;14.42;86.23;68375.75;5018134;28;20042;-79
2022/07/06 07:02:54;;;;;;;4.25;1.50;;;;;;;14.47;85.34;68381.41;5032955;28;20034;-79
2022/07/06 07:05:20;;;;;;;5.78;2.30;;;;;;;;;;5028758;28;20133;-77
2022/07/06 07:07:45;;;;;;;3.45;2.03;;;;;;;14.54;84.35;68388.84;5011060;28;20050;-80
2022/07/06 07:10:10;;;;;;;4.82;2.17;;;;;;;;;;4990153;28;20034;-80
2022/07/06 07:12:46;;;;;;;5.67;1.60;;;;;;;14.56;84.54;68391.69;4990601;28;20578;-80
2022/07/06 07:15:11;;;;;;;5.03;1.92;;;;;;;14.60;83.40;68395.69;5004956;28;20277;-78
2022/07/06 07:17:37;;;;;;;4.10;2.10;;;;;;;;;;5008248;28;20029;-80
2022/07/06 07:20:03;;;;;;;3.03;1.42;;;;;;;14.77;82.61;68414.47;5010668;28;20422;-78
2022/07/06 07:22:29;;;;;;;4.00;1.23;;;;;;;14.79;82.29;68411.97;5035966;28;20687;-80
2022/07/06 07:24:54;;;;;;;4.90;1.63;;;;;;;14.89;82.38;68428.13;5016740;28;20054;-79
2022/07/06 07:27:20;;;;;;;5.28;1.83;;;;;;;;;;5015745;28;20050;-78
2022/07/06 07:29:45;;;;;;;4.13;1.27;;;;;;;14.99;81.34;68434.16;5005770;28;20687;-79
2022/07/06 07:32:10;;;;;;;4.45;1.52;;;;;;;15.07;81.11;68448.63;5023111;28;20041;-78
2022/07/06 07:34:36;;;;;;;3.47;1.42;;;;;;;15.22;80.53;68459.22;5036319;28;20113;-76
2022/07/06 07:37:04;;;;;;;6.47;1.70;;;;;;;15.18;80.62;68455.22;5023048;28;20041;-77
2022/07/06 07:39:30;;;;;;;2.55;1.40;;;;;;;15.17;80.27;68450.84;5012062;28;21340;-77
2022/07/06 07:41:55;;;;;;;3.60;1.40;;;;;;;15.21;80.78;68466.13;5022593;28;20144;-81
2022/07/06 07:44:20;;;;;;;5.03;1.35;;;;;;;;;;5026814;28;20037;-82
2022/07/06 07:46:46;;;;;;;4.03;1.73;;;;;;;;;;5032346;28;20481;-80
2022/07/06 07:49:11;;;;;;;4.53;1.65;;;;;;;15.39;79.97;68483.38;5019881;28;20045;-81
2022/07/06 07:51:36;;;;;;;3.00;1.30;;;;;;;;;;5021790;28;20563;-79
2022/07/06 07:54:02;;;;;;;3.38;1.50;;;;;;;15.70;78.89;68512.78;5012378;28;20041;-80
2022/07/06 07:56:27;;;;;;;5.45;1.65;;;;;;;15.75;78.31;68515.78;5012952;28;20071;-79
2022/07/06 07:58:52;;;;;;;5.50;1.20;;;;;;;15.91;77.21;68542.09;5009279;28;20046;-81
2022/07/06 08:01:18;;;;;;;5.22;1.70;;;;;;;;;;5007204;28;20053;-81
2022/07/06 08:03:43;;;;;;;5.97;1.80;;;;;;;15.93;77.23;68538.97;5010522;28;20045;-80
2022/07/06 08:06:09;;;;;;;3.35;1.70;;;;;;;15.88;77.05;68533.31;5011805;28;20119;-79
2022/07/06 08:08:34;;;;;;;5.13;1.63;;;;;;;16.04;76.70;68547.69;5009144;28;20057;-81
2022/07/06 08:10:59;;;;;;;6.15;1.48;;;;;;;;;;5011058;28;20125;-80
2022/07/06 08:13:25;;;;;;;4.50;1.25;;;;;;;;;;5012200;28;20441;-79
2022/07/06 08:15:50;;;;;;;4.28;1.40;;;;;;;16.35;75.34;68591.09;5011710;28;20044;-79
2022/07/06 08:18:15;;;;;;;4.13;1.13;;;;;;;;;;5017338;28;20060;-79
2022/07/06 08:20:40;;;;;;;5.38;1.65;;;;;;;16.37;73.46;68593.38;5012702;28;20049;-81
2022/07/06 08:23:06;;;;;;;5.05;1.00;;;;;;;16.25;72.45;68574.31;5011896;28;20046;-79
2022/07/06 08:25:31;;;;;;;6.22;1.17;;;;;;;16.36;72.81;68586.84;5010941;28;20038;-79
2022/07/06 08:27:57;;;;;;;11.82;1.70;;;;;;;;;;5053912;23;20086;-77
2022/07/06 08:30:22;;;;;;;4.18;1.10;;;;;;;16.42;72.55;68599.06;5063741;28;20102;-77
2022/07/06 08:32:48;;;;;;;1.75;0.70;;;;;;;16.72;71.90;68626.78;5058897;28;20052;-77
2022/07/06 08:35:13;;;;;;;2.75;0.95;;;;;;;;;;5064386;28;20056;-77
2022/07/06 08:37:39;;;;;;;4.13;1.00;;;;;;;16.73;69.55;68633.28;5063321;28;20066;-77
2022/07/06 08:40:05;;;;;;;3.50;0.80;;;;;;;16.76;69.00;68631.34;5043225;28;20197;-77
2022/07/06 08:42:34;;;;;;;3.72;0.93;;;;;;;16.83;68.72;68644.72;5048412;28;20039;-77
2022/07/06 08:45:01;;;;;;;3.33;0.80;;;;;;;16.92;68.90;68660.34;5047468;28;20148;-77
2022/07/06 08:47:27;;;;;;;4.82;1.40;;;;;;;16.91;68.74;68648.44;5048219;28;20044;-77
2022/07/06 08:49:54;;;;;;;3.38;0.80;;;;;;;17.01;66.94;68659.28;5042181;28;20044;-77
2022/07/06 08:52:19;;;;;;;3.40;0.70;;;;;;;;;;5050328;28;20078;-77
2022/07/06 08:54:45;;;;;;;3.63;0.60;;;;;;;;;;5049834;28;20052;-77
2022/07/06 08:57:10;;;;;;;2.65;0.75;;;;;;;17.21;65.81;68686.34;5046821;28;20083;-77
2022/07/06 08:59:36;;;;;;;2.90;0.70;;;;;;;;;;5041301;28;20029;-77
2022/07/06 09:02:03;;;;;;;3.10;0.88;;;;;;;17.28;65.52;68694.31;5039075;28;20052;-77
2022/07/06 09:04:30;;;;;;;3.75;0.55;;;;;;;17.29;65.38;68690.66;5041636;28;20183;-79
2022/07/06 09:06:56;;;;;;;2.40;0.70;;;;;;;;;;5045378;28;20043;-79
2022/07/06 09:09:23;;;;;;;3.10;0.82;;;;;;;;;;5045337;28;20052;-79
2022/07/06 09:11:49;;;;;;;3.80;0.82;;;;;;;17.53;65.78;68722.28;5045675;28;20567;-79
2022/07/06 09:14:14;;;;;;;2.33;0.77;;;;;;;17.68;64.20;68733.44;5028907;28;20045;-79
2022/07/06 09:16:40;;;;;;;3.20;0.60;;;;;;;17.62;64.05;68732.56;5046799;28;20048;-79
2022/07/06 09:19:11;;;;;;;2.83;0.70;;;;;;;17.68;62.56;68733.44;5049184;28;20032;-79
2022/07/06 09:21:36;;;;;;;4.75;0.80;;;;;;;17.92;64.50;68765.66;5046639;28;20059;-79
2022/07/06 09:24:06;;;;;;;1.83;0.90;;;;;;;17.91;61.14;68759.16;5051636;28;20033;-79
2022/07/06 09:26:32;;;;;;;4.90;0.93;;;;;;;17.88;63.47;68761.69;5043956;28;20049;-78
2022/07/06 09:28:59;;;;;;;4.90;0.80;;;;;;;18.01;61.63;68775.94;5046361;28;20094;-78
2022/07/06 09:31:25;;;;;;;4.22;0.98;;;;;;;18.01;63.53;68770.53;5047082;28;20067;-79
2022/07/06 09:33:55;;;;;;;4.03;0.70;;;;;;;18.12;61.39;68783.09;5042905;28;20108;-78
2022/07/06 09:36:40;;;;;;;2.53;0.70;;;;;;;;;;5044000;28;20079;-78
2022/07/06 09:39:24;;;;;;;4.03;0.68;;;;;;;18.27;61.78;68797.56;5027423;28;20654;-79
2022/07/06 09:41:53;;;;;;;1.95;0.70;;;;;;;18.43;60.48;68823.31;5038865;28;20037;-78
2022/07/06 09:44:33;;;;;;;2.75;0.60;;;;;;;18.47;59.96;68821.91;5023642;28;20079;-79
2022/07/06 09:47:00;;;;;;;1.75;0.50;;;;;;;;;;5040980;28;20037;-79
2022/07/06 09:49:26;;;;;;;1.98;0.70;;;;;;;18.51;58.61;68826.50;5041451;28;20131;-78
2022/07/06 09:51:52;;;;;;;1.45;0.50;;;;;;;;;;5045470;28;20048;-79
2022/07/06 09:54:18;;;;;;;3.08;0.70;;;;;;;18.36;58.83;68809.38;5026083;28;20664;-80
2022/07/06 09:56:52;;;;;;;2.33;0.60;;;;;;;18.35;58.00;68813.63;5044475;28;20041;-77
2022/07/06 09:59:21;;;;;;;1.90;0.57;;;;;;;18.48;57.97;68823.06;5044206;28;20048;-79
2022/07/06 10:01:50;;;;;;;3.00;0.60;;;;;;;18.54;57.55;68829.34;5045448;28;20175;-79
2022/07/06 10:04:18;;;;;;;;;;;;;;;18.66;56.76;68843.63;5029266;28;20040;-78
2022/07/06 10:06:44;;;;;;;3.38;0.77;;;;;;;18.31;58.68;68798.84;5043212;28;19932;-77
2022/07/06 10:09:10;;;;;;;3.50;0.57;;;;;;;;;;5030836;28;20041;-78
2022/07/06 10:11:42;;;;;;;2.83;0.50;;;;;;;18.94;56.06;68874.50;5046900;28;20052;-79
2022/07/06 10:14:08;;;;;;;3.70;0.85;;;;;;;18.90;54.24;68864.50;5044973;28;20528;-78
2022/07/06 10:16:37;;;;;;;1.92;0.60;;;;;;;18.70;55.84;68853.59;5048237;28;20045;-78
2022/07/06 10:19:06;;;;;;;3.72;0.73;;;;;;;18.65;57.35;68842.50;5047382;28;20540;-78
2022/07/06 10:21:31;;;;;;;;;;;;;;;18.55;56.96;68836.44;5047502;28;20045;-77
2022/07/06 10:23:59;;;;;;;2.55;0.60;;;;;;;18.61;57.30;68837.34;5048328;28;20521;-80
2022/07/06 10:26:25;;;;;;;2.85;0.63;;;;;;;;;;5045870;28;20579;-79
2022/07/06 10:28:52;;;;;;;1.77;0.50;;;;;;;18.74;56.82;68851.66;5045346;28;20060;-78
2022/07/06 10:31:19;;;;;;;2.33;0.77;;;;;;;18.66;57.31;68848.44;5045553;28;20124;-78
2022/07/06 10:33:45;;;;;;;3.90;0.93;;;;;;;18.54;56.42;68829.94;5044436;28;20048;-78
2022/07/06 10:36:12;;;;;;;3.15;0.75;;;;;;;18.44;56.55;68818.50;5043063;28;20041;-79
2022/07/06 10:38:37;;;;;;;2.33;0.50;;;;;;;18.50;56.72;68825.38;5040534;28;20110;-79
2022/07/06 10:41:03;;;;;;;3.75;0.70;;;;;;;;;;5042559;28;20493;-79
2022/07/06 10:43:37;;;;;;;4.18;0.80;;;;;;;18.77;55.92;68855.63;5025840;28;20033;-79
2022/07/06 10:46:20;;;;;;;2.30;0.70;;;;;;;18.70;55.03;68847.63;5039107;28;20048;-79
2022/07/06 10:48:46;;;;;;;1.23;0.40;;;;;;;18.76;57.16;68853.91;5038621;28;20509;-78
2022/07/06 10:51:33;;;;;;;3.22;0.63;;;;;;;18.72;56.08;68849.91;5022364;28;20049;-79
2022/07/06 10:54:01;;;;;;;2.17;0.60;;;;;;;;;;5040616;28;20425;-79
2022/07/06 10:56:35;;;;;;;1.77;0.70;;;;;;;;;;5040128;28;20075;-79
2022/07/06 10:59:21;;;;;;;2.13;0.50;;;;;;;19.15;54.26;68898.47;5035963;28;20041;-78
2022/07/06 11:02:15;;;;;;;2.67;0.55;;;;;;;19.21;53.30;68904.19;5033583;28;20045;-78
2022/07/06 11:04:47;;;;;;;3.80;0.50;;;;;;;19.22;52.74;68905.31;5021397;28;20044;-78
2022/07/06 11:07:15;;;;;;;3.03;0.50;;;;;;;19.30;51.72;68914.47;5037158;28;20091;-78
2022/07/06 11:09:47;;;;;;;0.70;0.30;;;;;;;19.26;51.63;68910.47;5039215;28;20067;-78
2022/07/06 11:12:20;;;;;;;4.30;0.68;;;;;;;19.34;52.44;68916.91;5041588;28;20139;-78
2022/07/06 11:14:46;;;;;;;1.15;0.50;;;;;;;;;;5036174;28;20057;-78
2022/07/06 11:17:12;;;;;;;1.13;0.40;;;;;;;19.30;50.33;68919.84;5040690;28;20114;-78
2022/07/06 11:19:37;;;;;;;4.18;0.43;;;;;;;;;;5038720;28;20041;-78
2022/07/06 11:22:08;;;;;;;2.13;0.40;;;;;;;19.49;51.17;68936.19;5038222;28;20560;-78
2022/07/06 11:24:37;;;;;;;1.90;0.60;;;;;;;19.52;51.72;68936.91;5022824;28;20037;-78
2022/07/06 11:27:03;;;;;;;2.65;0.47;;;;;;;19.47;51.58;68933.88;5040864;28;20713;-78
2022/07/06 11:29:30;;;;;;;1.85;0.52;;;;;;;19.52;53.71;68939.03;5040824;28;20037;-78
2022/07/06 11:32:00;;;;;;;2.22;0.82;;;;;;;19.58;52.00;68945.88;5040484;28;20041;-78
2022/07/06 11:34:29;;;;;;;1.45;0.50;;;;;;;;;;5044226;28;20032;-78
2022/07/06 11:36:57;;;;;;;2.92;0.60;;;;;;;19.72;52.06;68959.22;5026133;28;20049;-78
2022/07/06 11:39:22;;;;;;;5.20;0.50;;;;;;;19.70;52.89;68956.91;5037858;28;20798;-79
2022/07/06 11:41:48;;;;;;;4.13;0.80;;;;;;;;;;5041048;28;20037;-78
2022/07/06 11:44:13;;;;;;;3.28;0.40;;;;;;;19.84;51.60;68975.06;5043626;28;20056;-78
2022/07/06 11:46:38;;;;;;;2.22;0.68;;;;;;;19.98;49.08;68990.50;5029746;28;20041;-78
2022/07/06 11:49:05;;;;;;;2.38;0.57;;;;;;;;;;5048152;28;20099;-78
2022/07/06 11:51:42;;;;;;;1.98;0.50;;;;;;;20.17;50.13;69017.63;5047012;28;20044;-78
2022/07/06 11:54:11;;;;;;;2.13;0.40;;;;;;;20.55;48.44;69053.97;5047049;28;20052;-78
2022/07/06 11:56:37;;;;;;;2.58;0.98;;;;;;;20.33;48.38;69029.94;5047239;28;20720;-78
2022/07/06 11:59:04;;;;;;;2.08;0.50;;;;;;;20.45;48.05;69040.94;5025150;28;20136;-78
2022/07/06 12:01:31;;;;;;;1.88;0.60;;;;;;;20.31;49.02;69024.94;5044781;28;20040;-78
2022/07/06 12:04:03;;;;;;;1.77;0.52;;;;;;;20.32;48.02;69028.22;5045695;28;20119;-78
2022/07/06 12:06:30;;;;;;;1.98;0.50;;;;;;;20.22;47.34;69017.91;5046941;28;20587;-78
2022/07/06 12:08:58;;;;;;;2.25;0.43;;;;;;;20.17;47.77;69008.91;5046950;28;20045;-78
2022/07/06 12:11:29;;;;;;;1.38;0.73;;;;;;;20.60;47.23;69060.25;5046900;28;20052;-78
2022/07/06 12:14:00;;;;;;;1.95;0.55;;;;;;;20.52;48.04;69051.09;5043123;28;20059;-78
2022/07/06 12:16:34;;;;;;;1.70;0.55;;;;;;;20.53;46.87;69051.69;5043386;28;20037;-78
2022/07/06 12:19:00;;;;;;;1.70;0.60;;;;;;;20.71;46.46;69077.66;5044200;28;20462;-78
2022/07/06 12:21:26;;;;;;;2.80;0.50;;;;;;;20.83;47.27;69083.28;5043962;28;20033;-78
2022/07/06 12:23:52;;;;;;;1.92;0.38;;;;;;;;;;5040588;28;20041;-78
2022/07/06 12:26:24;;;;;;;1.02;0.35;;;;;;;20.60;47.18;69065.66;5042226;28;20040;-78
2022/07/06 12:29:05;;;;;;;2.78;0.50;;;;;;;20.76;44.72;69077.97;5042344;28;20049;-78
2022/07/06 12:31:36;;;;;;;1.88;0.28;;;;;;;20.88;44.93;69091.69;5027121;28;20052;-77
2022/07/06 12:34:03;;;;;;;1.30;0.60;;;;;;;20.96;46.79;69106.25;5038999;28;20520;-79
2022/07/06 12:36:28;;;;;;;1.83;0.40;;;;;;;;;;5046484;28;20068;-78
2022/07/06 12:38:54;;;;;;;2.80;0.50;;;;;;;21.17;44.93;69121.03;5043151;28;20053;-78
2022/07/06 12:41:34;;;;;;;1.38;0.30;;;;;;;21.63;43.63;69175.25;5045645;28;20037;-78
2022/07/06 12:44:01;;;;;;;2.08;0.50;;;;;;;21.33;42.10;69152.88;5042376;28;20091;-78
2022/07/06 12:46:38;;;;;;;1.25;0.30;;;;;;;21.32;43.25;69140.91;5046002;28;20048;-78
2022/07/06 12:49:12;;;;;;;3.50;0.57;;;;;;;21.18;42.66;69122.19;5043794;28;20536;-78
2022/07/06 12:51:55;;;;;;;1.02;0.25;;;;;;;21.10;44.83;69113.03;5039824;28;20048;-78
2022/07/06 12:54:21;;;;;;;1.63;0.38;;;;;;;;;;5042158;28;20677;-78